Time;durP1;ratioP1;P1;durP2;ratioP2;P2;SDS_P1;SDS_P2;PMS_P1;PMS_P2;Temp;Humidity;BMP_temperature;BMP_pressure;BME280_temperature;BME280_humidity;BME280_pressure;Samples;Min_cycle;Max_cycle;Signal;HPM_P1;HPM_P2
2023/05/14 00:00:41;;;;;;;13.80;8.20;;;;;;;;;;6251055;22;20012;-94
2023/05/14 00:03:07;;;;;;;13.15;7.65;;;;;;;;;;6250087;22;20022;-95
2023/05/14 00:05:33;;;;;;;16.85;8.30;;;;;;;;;;6251283;22;20061;-95
2023/05/14 00:08:09;;;;;;;18.10;7.22;;;;;;;;;;6275960;22;20011;-95
2023/05/14 00:10:37;;;;;;;16.77;7.43;;;;;;;;;;6246491;22;20012;-94
2023/05/14 00:13:03;;;;;;;17.60;8.30;;;;;;;;;;6250143;22;20067;-96
2023/05/14 00:15:29;;;;;;;22.00;8.15;;;;;;;;;;6252730;22;20334;-96
2023/05/14 00:17:56;;;;;;;10.73;6.72;;;;;;;;;;6250911;22;20008;-96
2023/05/14 00:20:22;;;;;;;13.88;6.90;;;;;;;;;;6273111;22;20011;-96
2023/05/14 00:22:48;;;;;;;15.13;7.80;;;;;;;;;;6278767;22;20035;-95
2023/05/14 00:25:14;;;;;;;17.45;8.38;;;;;;;;;;6253389;22;20363;-95
2023/05/14 00:27:43;;;;;;;19.27;7.50;;;;;;;;;;6253089;22;20007;-96
2023/05/14 00:30:09;;;;;;;19.83;8.07;;;;;;;;;;6280623;22;20061;-96
2023/05/14 00:32:37;;;;;;;19.10;7.90;;;;;;;;;;6255214;22;20036;-96
2023/05/14 00:35:15;;;;;;;20.17;7.95;;;;;;;;;;6281355;22;20073;-96
2023/05/14 00:37:43;;;;;;;16.88;8.25;;;;;;;;;;6281337;22;20448;-96
2023/05/14 00:40:11;;;;;;;19.70;8.60;;;;;;;;;;6251240;22;20342;-96
2023/05/14 00:42:40;;;;;;;15.88;7.80;;;;;;;;;;6251293;22;20496;-95
2023/05/14 00:45:07;;;;;;;17.88;9.10;;;;;;;;;;6250059;22;20011;-96
2023/05/14 00:47:40;;;;;;;18.92;8.05;;;;;;;;;;6278665;22;20020;-96
2023/05/14 00:50:13;;;;;;;24.52;7.40;;;;;;;;;;6253938;22;20015;-96
2023/05/14 00:52:40;;;;;;;14.88;7.85;;;;;;;;;;6276129;22;20008;-95
2023/05/14 00:55:16;;;;;;;19.27;7.38;;;;;;;;;;6253023;22;20015;-95
2023/05/14 00:57:42;;;;;;;17.00;7.23;;;;;;;;;;6277717;22;20083;-94
2023/05/14 01:00:11;;;;;;;15.38;7.65;;;;;;;;;;6277229;22;20581;-96
2023/05/14 01:02:38;;;;;;;19.55;6.93;;;;;;;;;;6251399;22;20318;-96
2023/05/14 01:05:05;;;;;;;17.17;8.45;;;;;;;;;;6253381;22;20020;-96
2023/05/14 01:07:50;;;;;;;16.48;6.43;;;;;;;;;;6252214;22;20238;-96
2023/05/14 01:10:21;;;;;;;17.10;8.05;;;;;;;;;;6276800;22;20355;-95
2023/05/14 01:12:50;;;;;;;20.25;7.50;;;;;;;;;;6275903;22;20053;-96
2023/05/14 01:15:23;;;;;;;23.83;7.60;;;;;;;;;;6276189;22;20069;-96
2023/05/14 01:18:09;;;;;;;17.48;6.72;;;;;;;;;;6277458;22;20008;-96
2023/05/14 01:20:35;;;;;;;18.98;7.43;;;;;;;;;;6275915;22;20485;-96
2023/05/14 01:23:01;;;;;;;16.33;6.88;;;;;;;;;;6249444;22;20039;-96
2023/05/14 01:25:34;;;;;;;21.15;7.20;;;;;;;;;;6255143;22;20004;-96
2023/05/14 01:28:22;;;;;;;16.00;6.72;;;;;;;;;;6281610;22;20011;-96
2023/05/14 01:30:54;;;;;;;14.00;6.88;;;;;;;;;;6281170;22;20312;-96
2023/05/14 01:33:37;;;;;;;12.00;6.60;;;;;;;;;;6283188;22;20007;-96
2023/05/14 01:36:07;;;;;;;20.50;6.65;;;;;;;;;;6270182;22;20019;-96
2023/05/14 01:38:34;;;;;;;16.83;7.05;;;;;;;;;;6286331;22;20469;-96
2023/05/14 01:41:07;;;;;;;14.20;6.88;;;;;;;;;;6286159;22;20060;-96
2023/05/14 01:43:34;;;;;;;17.95;7.32;;;;;;;;;;6261668;22;20023;-96
2023/05/14 01:46:32;;;;;;;;;;;;;;;;;;;;;
2023/05/14 01:49:00;;;;;;;15.45;7.10;;;;;;;;;;6291849;22;20048;-96
2023/05/14 01:51:26;;;;;;;20.25;7.18;;;;;;;;;;6288746;22;20453;-96
2023/05/14 01:53:53;;;;;;;15.60;7.13;;;;;;;;;;6290675;22;20062;-96
2023/05/14 01:56:28;;;;;;;19.58;7.07;;;;;;;;;;6288754;22;19999;-96
2023/05/14 01:59:03;;;;;;;16.48;7.07;;;;;;;;;;6284210;22;20500;-96
2023/05/14 02:04:33;;;;;;;18.50;7.85;;;;;;;;;;6286642;22;20077;-96
2023/05/14 02:07:01;;;;;;;27.35;7.85;;;;;;;;;;6278400;22;20487;-96
2023/05/14 02:09:30;;;;;;;15.93;7.28;;;;;;;;;;6278903;22;20014;-96
2023/05/14 02:11:56;;;;;;;15.90;7.25;;;;;;;;;;6252473;22;20012;-96
2023/05/14 02:14:22;;;;;;;13.48;6.85;;;;;;;;;;6251596;22;20008;-96
2023/05/14 02:16:50;;;;;;;16.88;7.20;;;;;;;;;;6254280;22;20004;-96
2023/05/14 02:19:42;;;;;;;18.08;6.63;;;;;;;;;;6280539;22;20392;-96
2023/05/14 02:22:10;;;;;;;17.33;7.40;;;;;;;;;;6243650;22;20027;-96
2023/05/14 02:24:37;;;;;;;24.30;8.20;;;;;;;;;;6291910;22;19987;-96
2023/05/14 02:27:24;;;;;;;14.65;7.60;;;;;;;;;;6299399;22;20004;-96
2023/05/14 02:29:50;;;;;;;20.23;7.97;;;;;;;;;;6283448;22;20011;-96
2023/05/14 02:32:29;;;;;;;17.40;8.25;;;;;;;;;;6252652;22;20481;-88
2023/05/14 02:34:55;;;;;;;16.02;7.65;;;;;;;;;;6224453;22;20782;-88
2023/05/14 02:40:17;;;;;;;14.50;8.13;;;;;;;;;;6262416;22;20078;-87
2023/05/14 02:42:44;;;;;;;27.10;8.65;;;;;;;;;;6254622;22;20011;-88
2023/05/14 02:45:16;;;;;;;25.83;9.65;;;;;;;;;;6228500;22;20050;-88
2023/05/14 02:47:48;;;;;;;22.95;9.23;;;;;;;;;;6253842;22;20026;-87
2023/05/14 02:50:23;;;;;;;16.88;8.32;;;;;;;;;;6230450;22;20441;-87
2023/05/14 02:52:49;;;;;;;16.83;9.60;;;;;;;;;;6253205;22;19999;-87
2023/05/14 02:55:17;;;;;;;26.30;8.77;;;;;;;;;;6255002;22;20057;-88
2023/05/14 02:57:43;;;;;;;22.50;9.07;;;;;;;;;;6229096;22;20008;-88
2023/05/14 03:00:11;;;;;;;23.60;9.32;;;;;;;;;;6253794;22;20728;-87
2023/05/14 03:02:47;;;;;;;23.13;9.15;;;;;;;;;;6255240;22;20011;-88
2023/05/14 03:05:16;;;;;;;19.98;8.75;;;;;;;;;;6254183;22;20000;-88
2023/05/14 03:07:45;;;;;;;21.85;9.23;;;;;;;;;;6253766;22;20497;-88
2023/05/14 03:10:11;;;;;;;21.75;9.63;;;;;;;;;;6252640;22;20088;-88
2023/05/14 03:12:41;;;;;;;27.90;10.25;;;;;;;;;;6254042;22;20030;-88
2023/05/14 03:15:18;;;;;;;24.58;10.55;;;;;;;;;;6228258;22;20008;-86
2023/05/14 03:17:48;;;;;;;24.42;9.93;;;;;;;;;;6253405;22;20015;-88
2023/05/14 03:20:29;;;;;;;22.52;10.40;;;;;;;;;;6229385;22;20347;-89
2023/05/14 03:23:01;;;;;;;29.88;10.30;;;;;;;;;;6254843;22;20033;-88
2023/05/14 03:25:30;;;;;;;23.17;9.98;;;;;;;;;;6253620;22;20011;-89
2023/05/14 03:27:56;;;;;;;28.67;9.93;;;;;;;;;;6228264;22;20023;-88
2023/05/14 03:30:45;;;;;;;27.17;10.65;;;;;;;;;;6252261;22;20061;-88
2023/05/14 03:33:12;;;;;;;23.55;9.75;;;;;;;;;;6225091;22;20438;-88
2023/05/14 03:35:42;;;;;;;24.75;9.95;;;;;;;;;;6220158;23;20015;-89
2023/05/14 03:38:09;;;;;;;25.75;9.63;;;;;;;;;;6218667;23;20551;-89
2023/05/14 03:40:47;;;;;;;42.58;10.57;;;;;;;;;;6243790;23;20398;-88
2023/05/14 03:43:16;;;;;;;27.38;10.52;;;;;;;;;;6221673;23;20012;-88
2023/05/14 03:45:51;;;;;;;23.40;9.82;;;;;;;;;;6246360;23;20043;-88
2023/05/14 03:48:20;;;;;;;27.48;10.93;;;;;;;;;;6220902;23;20090;-89
2023/05/14 03:50:47;;;;;;;31.08;10.05;;;;;;;;;;6244462;23;20016;-88
2023/05/14 03:53:15;;;;;;;21.00;10.38;;;;;;;;;;6245965;23;20000;-89
2023/05/14 03:55:41;;;;;;;30.73;10.77;;;;;;;;;;6220012;23;20248;-89
2023/05/14 03:58:16;;;;;;;27.10;9.85;;;;;;;;;;6244034;23;20004;-88
2023/05/14 04:00:44;;;;;;;27.67;10.70;;;;;;;;;;6217474;23;20008;-89
2023/05/14 04:03:17;;;;;;;36.03;12.85;;;;;;;;;;6247893;23;20011;-88
2023/05/14 04:05:43;;;;;;;32.08;12.90;;;;;;;;;;6248885;23;20091;-89
2023/05/14 04:08:09;;;;;;;35.58;13.02;;;;;;;;;;6224419;23;20015;-89
2023/05/14 04:10:38;;;;;;;40.45;13.18;;;;;;;;;;6223446;23;20099;-89
2023/05/14 04:13:06;;;;;;;36.08;12.10;;;;;;;;;;6223683;23;20012;-89
2023/05/14 04:15:51;;;;;;;35.55;12.50;;;;;;;;;;6249287;23;20011;-90
2023/05/14 04:18:18;;;;;;;32.95;12.25;;;;;;;;;;6224378;23;20005;-88
2023/05/14 04:20:45;;;;;;;36.83;11.75;;;;;;;;;;6224441;23;20008;-88
2023/05/14 04:23:21;;;;;;;22.98;10.43;;;;;;;;;;6249409;23;20015;-88
2023/05/14 04:25:51;;;;;;;28.33;11.10;;;;;;;;;;6249865;23;20434;-89
2023/05/14 04:28:20;;;;;;;29.67;11.05;;;;;;;;;;6222263;23;20016;-88
2023/05/14 04:30:46;;;;;;;29.85;10.98;;;;;;;;;;6224847;23;20541;-88
2023/05/14 04:33:12;;;;;;;26.27;9.75;;;;;;;;;;6226360;22;20016;-89
2023/05/14 04:35:40;;;;;;;22.10;8.85;;;;;;;;;;6224790;23;20010;-87
2023/05/14 04:38:06;;;;;;;31.25;9.35;;;;;;;;;;6224348;23;20458;-88
2023/05/14 04:40:32;;;;;;;28.95;10.48;;;;;;;;;;6224678;23;20008;-89
2023/05/14 04:42:58;;;;;;;23.95;9.80;;;;;;;;;;6224749;23;20012;-88
2023/05/14 04:45:25;;;;;;;26.90;9.57;;;;;;;;;;6223254;23;20447;-89
2023/05/14 04:47:51;;;;;;;35.95;10.10;;;;;;;;;;6224483;23;20370;-89
2023/05/14 04:50:17;;;;;;;22.27;9.02;;;;;;;;;;6224441;23;20020;-88
2023/05/14 04:52:45;;;;;;;25.80;8.85;;;;;;;;;;6224057;23;20015;-89
2023/05/14 04:55:11;;;;;;;23.67;9.38;;;;;;;;;;6223769;23;20320;-88
2023/05/14 04:57:37;;;;;;;22.27;8.32;;;;;;;;;;6223920;23;20004;-89
2023/05/14 05:00:08;;;;;;;23.95;8.52;;;;;;;;;;6223832;23;20099;-87
2023/05/14 05:02:34;;;;;;;29.60;8.93;;;;;;;;;;6222824;23;20004;-89
2023/05/14 05:05:00;;;;;;;26.80;8.70;;;;;;;;;;6223592;23;20031;-89
2023/05/14 05:07:26;;;;;;;30.00;9.35;;;;;;;;;;6222210;23;20051;-89
2023/05/14 05:09:54;;;;;;;24.02;8.60;;;;;;;;;;6222396;23;20269;-89
2023/05/14 05:12:23;;;;;;;22.00;8.43;;;;;;;;;;6223538;23;20015;-88
2023/05/14 05:14:50;;;;;;;31.13;8.00;;;;;;;;;;6250894;23;20000;-89
2023/05/14 05:17:16;;;;;;;24.27;9.55;;;;;;;;;;6223890;23;20465;-89
2023/05/14 05:19:42;;;;;;;29.63;8.48;;;;;;;;;;6222955;23;20095;-89
2023/05/14 05:22:10;;;;;;;26.63;9.77;;;;;;;;;;6223934;23;20016;-89
2023/05/14 05:24:36;;;;;;;22.15;8.63;;;;;;;;;;6224092;23;20525;-88
2023/05/14 05:27:05;;;;;;;24.67;7.50;;;;;;;;;;6223748;23;20014;-88
2023/05/14 05:29:41;;;;;;;24.50;8.13;;;;;;;;;;6224445;23;20008;-88
2023/05/14 05:32:07;;;;;;;20.45;7.85;;;;;;;;;;6224150;23;20140;-88
2023/05/14 05:34:41;;;;;;;21.20;8.52;;;;;;;;;;6249521;22;20019;-89
2023/05/14 05:37:11;;;;;;;14.30;7.18;;;;;;;;;;6225849;23;20507;-89
2023/05/14 05:39:40;;;;;;;21.75;6.85;;;;;;;;;;6224944;23;20121;-89
2023/05/14 05:42:09;;;;;;;19.17;6.70;;;;;;;;;;6249209;23;20023;-89
2023/05/14 05:44:40;;;;;;;21.88;6.95;;;;;;;;;;6250077;23;20117;-89
2023/05/14 05:47:09;;;;;;;23.35;6.82;;;;;;;;;;6221728;23;20011;-89
2023/05/14 05:49:38;;;;;;;19.73;6.10;;;;;;;;;;6249511;23;20095;-88
2023/05/14 05:52:04;;;;;;;24.95;7.38;;;;;;;;;;6253806;23;20014;-88
2023/05/14 05:54:34;;;;;;;26.52;6.85;;;;;;;;;;6248521;23;20004;-89
2023/05/14 05:57:00;;;;;;;20.33;6.78;;;;;;;;;;6226003;23;20008;-89
2023/05/14 05:59:36;;;;;;;;;;;;;;;;;;;;;
2023/05/14 06:02:03;;;;;;;17.40;6.70;;;;;;;;;;6251025;23;20039;-88
2023/05/14 06:04:29;;;;;;;22.55;6.72;;;;;;;;;;6223843;23;20071;-88
2023/05/14 06:06:58;;;;;;;19.90;6.55;;;;;;;;;;6224984;23;20057;-88
2023/05/14 06:09:24;;;;;;;28.75;5.78;;;;;;;;;;6249946;23;20079;-88
2023/05/14 06:11:50;;;;;;;16.40;6.10;;;;;;;;;;6251637;23;20008;-88
2023/05/14 06:14:16;;;;;;;15.10;5.55;;;;;;;;;;6250617;23;20073;-89
2023/05/14 06:16:45;;;;;;;17.60;5.90;;;;;;;;;;6225598;23;20023;-89
2023/05/14 06:19:11;;;;;;;19.90;5.70;;;;;;;;;;6225293;23;20024;-88
2023/05/14 06:21:41;;;;;;;22.90;4.97;;;;;;;;;;6251100;23;20020;-89
2023/05/14 06:24:08;;;;;;;12.02;4.88;;;;;;;;;;6224938;23;20046;-89
2023/05/14 06:26:35;;;;;;;11.73;5.07;;;;;;;;;;6225979;23;20076;-89
2023/05/14 06:29:27;;;;;;;15.50;4.75;;;;;;;;;;6251459;23;20047;-88
2023/05/14 06:32:00;;;;;;;18.67;5.25;;;;;;;;;;6250704;23;20327;-89
2023/05/14 06:34:26;;;;;;;17.95;4.97;;;;;;;;;;6227478;22;20355;-89
2023/05/14 06:36:52;;;;;;;14.85;4.50;;;;;;;;;;6225395;23;20039;-89
2023/05/14 06:39:20;;;;;;;13.13;4.72;;;;;;;;;;6225107;23;20034;-88
2023/05/14 06:44:40;;;;;;;12.18;4.40;;;;;;;;;;6233101;23;20020;-89
2023/05/14 06:47:07;;;;;;;20.02;5.40;;;;;;;;;;6228243;23;20461;-89
2023/05/14 06:49:58;;;;;;;;;;;;;;;;;;;;;
2023/05/14 06:52:26;;;;;;;16.67;4.97;;;;;;;;;;6230278;23;20523;-88
2023/05/14 06:54:55;;;;;;;12.65;4.97;;;;;;;;;;6229854;23;20342;-90
2023/05/14 06:57:32;;;;;;;18.55;4.90;;;;;;;;;;6226786;23;20016;-91
2023/05/14 07:00:07;;;;;;;16.23;4.60;;;;;;;;;;6228396;23;20015;-93
2023/05/14 07:05:49;;;;;;;;;;;;;;;;;;;;;
2023/05/14 07:11:09;;;;;;;14.25;4.22;;;;;;;;;;6229641;23;20278;-93
2023/05/14 07:13:36;;;;;;;19.75;5.70;;;;;;;;;;6255656;23;20034;-92
2023/05/14 07:16:10;;;;;;;12.73;4.28;;;;;;;;;;6229889;23;20310;-93
2023/05/14 07:18:40;;;;;;;15.30;5.07;;;;;;;;;;6229353;23;20024;-93
2023/05/14 07:21:06;;;;;;;8.07;4.53;;;;;;;;;;6229734;23;20419;-92
2023/05/14 07:23:51;;;;;;;11.48;4.70;;;;;;;;;;6230793;23;20012;-92
2023/05/14 07:26:25;;;;;;;19.10;4.65;;;;;;;;;;6230309;23;20012;-95
2023/05/14 07:28:57;;;;;;;12.25;4.60;;;;;;;;;;6231402;23;20008;-92
2023/05/14 07:31:24;;;;;;;14.35;5.97;;;;;;;;;;6227862;23;20027;-92
2023/05/14 07:34:00;;;;;;;17.50;7.40;;;;;;;;;;6238060;22;20106;-92
2023/05/14 07:36:33;;;;;;;11.93;5.55;;;;;;;;;;6234739;22;20018;-91
2023/05/14 07:38:59;;;;;;;15.02;5.57;;;;;;;;;;6232982;22;20016;-92
2023/05/14 07:41:32;;;;;;;15.02;5.13;;;;;;;;;;6259428;22;20515;-92
2023/05/14 07:44:01;;;;;;;13.35;5.30;;;;;;;;;;6234109;22;20008;-93
2023/05/14 07:49:13;;;;;;;13.32;5.45;;;;;;;;;;6263902;22;20445;-92
2023/05/14 07:51:47;;;;;;;13.05;6.00;;;;;;;;;;6233823;22;20004;-92
2023/05/14 07:54:15;;;;;;;15.82;5.45;;;;;;;;;;6260065;22;20000;-93
2023/05/14 07:56:47;;;;;;;16.33;6.95;;;;;;;;;;6234161;22;19999;-92
2023/05/14 07:59:13;;;;;;;12.10;5.68;;;;;;;;;;6234383;22;20425;-89
2023/05/14 08:01:40;;;;;;;9.73;5.70;;;;;;;;;;6259439;22;20010;-91
2023/05/14 08:04:58;;;;;;;13.43;4.90;;;;;;;;;;6234414;22;20109;-91
2023/05/14 08:07:28;;;;;;;13.63;4.72;;;;;;;;;;6259534;22;20042;-91
2023/05/14 08:09:56;;;;;;;11.40;5.40;;;;;;;;;;6258234;22;20008;-92
2023/05/14 08:12:25;;;;;;;15.10;5.22;;;;;;;;;;6233096;22;20153;-93
2023/05/14 08:14:59;;;;;;;15.07;5.30;;;;;;;;;;6260091;22;20004;-93
2023/05/14 08:17:25;;;;;;;9.30;4.35;;;;;;;;;;6258596;22;20000;-92
2023/05/14 08:20:05;;;;;;;11.45;5.20;;;;;;;;;;6256642;22;20034;-93
2023/05/14 08:22:36;;;;;;;14.50;5.10;;;;;;;;;;6234689;22;20012;-92
2023/05/14 08:25:04;;;;;;;12.70;5.07;;;;;;;;;;6231695;22;20035;-90
2023/05/14 08:27:39;;;;;;;17.63;5.45;;;;;;;;;;6256267;22;20018;-92
2023/05/14 08:30:13;;;;;;;16.67;4.97;;;;;;;;;;6230548;22;20105;-92
2023/05/14 08:32:42;;;;;;;15.65;5.65;;;;;;;;;;6231144;22;20066;-90
2023/05/14 08:35:12;;;;;;;12.65;4.90;;;;;;;;;;6229090;22;20105;-92
2023/05/14 08:37:38;;;;;;;14.23;5.13;;;;;;;;;;6229156;23;20095;-93
2023/05/14 08:40:09;;;;;;;12.00;4.40;;;;;;;;;;6227821;23;20035;-92
2023/05/14 08:42:47;;;;;;;13.50;5.20;;;;;;;;;;6226970;23;20004;-92
2023/05/14 08:50:37;;;;;;;12.68;5.15;;;;;;;;;;6283099;22;20042;-92
2023/05/14 08:53:20;;;;;;;19.00;5.15;;;;;;;;;;6282624;22;20087;-92
2023/05/14 08:55:50;;;;;;;12.10;4.65;;;;;;;;;;6260317;22;20008;-89
2023/05/14 08:58:24;;;;;;;10.55;5.15;;;;;;;;;;6280599;22;20006;-89
2023/05/14 09:00:53;;;;;;;13.82;5.93;;;;;;;;;;6251809;22;20008;-92
2023/05/14 09:03:20;;;;;;;19.35;5.70;;;;;;;;;;6275450;22;20580;-93
2023/05/14 09:05:47;;;;;;;10.80;4.32;;;;;;;;;;6249512;22;20327;-89
2023/05/14 09:08:20;;;;;;;15.38;5.55;;;;;;;;;;6278792;22;20094;-96
2023/05/14 09:10:46;;;;;;;14.70;4.95;;;;;;;;;;6250868;22;20084;-90
2023/05/14 09:13:12;;;;;;;15.02;5.03;;;;;;;;;;6274787;22;20397;-95
2023/05/14 09:15:41;;;;;;;9.05;5.60;;;;;;;;;;6250680;22;20011;-94
2023/05/14 09:18:10;;;;;;;10.57;5.40;;;;;;;;;;6249451;22;20035;-95
2023/05/14 09:20:40;;;;;;;12.15;6.15;;;;;;;;;;6249450;22;20046;-93
2023/05/14 09:23:06;;;;;;;8.55;5.03;;;;;;;;;;6250737;22;20024;-93
2023/05/14 09:28:23;;;;;;;12.30;5.72;;;;;;;;;;6268020;22;20472;-92
2023/05/14 09:30:59;;;;;;;11.40;5.22;;;;;;;;;;6281403;22;20448;-92
2023/05/14 09:33:35;;;;;;;14.95;5.22;;;;;;;;;;6253945;22;20031;-92
2023/05/14 09:36:02;;;;;;;9.45;5.22;;;;;;;;;;6253339;22;20087;-90
2023/05/14 09:38:32;;;;;;;10.05;5.15;;;;;;;;;;6277062;22;20309;-91
2023/05/14 09:41:01;;;;;;;14.68;6.13;;;;;;;;;;6277798;22;20004;-89
2023/05/14 09:43:34;;;;;;;15.95;5.70;;;;;;;;;;6252848;22;20015;-91
2023/05/14 09:46:08;;;;;;;13.30;5.63;;;;;;;;;;6252019;22;20446;-92
2023/05/14 09:48:34;;;;;;;12.13;6.97;;;;;;;;;;6255530;22;20012;-90
2023/05/14 09:51:00;;;;;;;18.67;7.00;;;;;;;;;;6255358;22;20019;-89
2023/05/14 09:56:16;;;;;;;12.50;6.30;;;;;;;;;;6282168;22;20008;-90
2023/05/14 09:58:45;;;;;;;10.43;6.75;;;;;;;;;;6256166;22;20456;-91
2023/05/14 10:01:32;;;;;;;14.75;7.28;;;;;;;;;;6256133;22;20008;-91
2023/05/14 10:03:59;;;;;;;15.32;6.20;;;;;;;;;;6281254;22;20380;-91
2023/05/14 10:06:30;;;;;;;10.30;6.18;;;;;;;;;;6256833;22;20011;-92
2023/05/14 10:08:58;;;;;;;10.82;6.45;;;;;;;;;;6256349;22;20575;-91
2023/05/14 10:11:30;;;;;;;8.65;5.53;;;;;;;;;;6281403;22;20003;-93
2023/05/14 10:14:09;;;;;;;12.80;6.63;;;;;;;;;;6284261;22;20022;-93
2023/05/14 10:16:50;;;;;;;11.52;5.95;;;;;;;;;;6283040;22;20391;-95
2023/05/14 10:19:24;;;;;;;10.55;5.75;;;;;;;;;;6279107;22;20707;-92
2023/05/14 10:21:57;;;;;;;10.82;5.78;;;;;;;;;;6280501;22;20007;-91
2023/05/14 10:24:24;;;;;;;9.13;6.03;;;;;;;;;;6277595;22;20003;-90
2023/05/14 10:26:51;;;;;;;13.23;6.10;;;;;;;;;;6247428;22;20035;-92
2023/05/14 10:29:30;;;;;;;13.13;6.63;;;;;;;;;;6276888;22;20447;-92
2023/05/14 10:34:47;;;;;;;12.57;6.30;;;;;;;;;;6262225;22;20454;-91
2023/05/14 10:37:14;;;;;;;13.98;6.75;;;;;;;;;;6251555;22;20008;-93
2023/05/14 10:42:27;;;;;;;12.95;7.10;;;;;;;;;;6248769;22;20331;-90
2023/05/14 10:45:00;;;;;;;13.57;6.75;;;;;;;;;;6218525;23;20008;-90
2023/05/14 10:47:28;;;;;;;14.07;6.63;;;;;;;;;;6220603;23;20008;-89
2023/05/14 10:49:56;;;;;;;15.02;8.15;;;;;;;;;;6221719;23;20058;-90
2023/05/14 10:52:26;;;;;;;17.10;7.43;;;;;;;;;;6222089;23;20004;-90
2023/05/14 10:54:52;;;;;;;12.68;7.25;;;;;;;;;;6198210;23;20505;-90
2023/05/14 10:57:20;;;;;;;11.15;6.47;;;;;;;;;;6222165;23;20335;-90
2023/05/14 10:59:48;;;;;;;18.63;7.43;;;;;;;;;;6223506;23;20011;-90
2023/05/14 11:02:20;;;;;;;9.82;6.07;;;;;;;;;;6221748;23;20008;-89
2023/05/14 11:04:57;;;;;;;17.75;7.07;;;;;;;;;;6220970;23;20003;-89
2023/05/14 11:07:25;;;;;;;14.77;7.07;;;;;;;;;;6197240;23;20026;-89
2023/05/14 11:09:54;;;;;;;15.82;7.00;;;;;;;;;;6219362;23;20038;-88
2023/05/14 11:12:20;;;;;;;21.13;8.73;;;;;;;;;;6196048;23;20088;-89
2023/05/14 11:14:47;;;;;;;12.05;8.63;;;;;;;;;;6222063;23;20004;-90
2023/05/14 11:17:19;;;;;;;11.52;8.07;;;;;;;;;;6223961;23;20031;-90
2023/05/14 11:19:49;;;;;;;15.63;7.20;;;;;;;;;;6221330;23;20040;-91
2023/05/14 11:22:15;;;;;;;14.48;7.28;;;;;;;;;;6197232;23;20012;-90
2023/05/14 11:24:44;;;;;;;12.25;6.80;;;;;;;;;;6196584;23;20023;-91
2023/05/14 11:27:13;;;;;;;14.35;7.47;;;;;;;;;;6197843;23;20012;-90
2023/05/14 11:29:44;;;;;;;11.60;6.50;;;;;;;;;;6223079;23;20027;-90
2023/05/14 11:32:11;;;;;;;14.27;6.93;;;;;;;;;;6223308;23;20070;-90
2023/05/14 11:34:37;;;;;;;11.40;6.57;;;;;;;;;;6194700;23;20008;-91
2023/05/14 11:37:07;;;;;;;8.02;4.75;;;;;;;;;;6217824;23;20008;-90
2023/05/14 11:39:36;;;;;;;11.00;4.75;;;;;;;;;;6192160;23;20068;-88
2023/05/14 11:42:03;;;;;;;6.25;4.70;;;;;;;;;;6210568;22;20489;-91
2023/05/14 11:44:29;;;;;;;9.68;5.25;;;;;;;;;;6188325;23;20008;-91
2023/05/14 11:47:00;;;;;;;8.43;3.90;;;;;;;;;;6162980;23;20077;-90
2023/05/14 11:49:45;;;;;;;8.63;5.15;;;;;;;;;;6165626;23;20013;-90
2023/05/14 11:52:14;;;;;;;6.10;3.33;;;;;;;;;;6184878;23;20033;-90
2023/05/14 11:54:41;;;;;;;8.75;3.80;;;;;;;;;;6191159;23;20009;-91
2023/05/14 11:57:09;;;;;;;11.25;4.32;;;;;;;;;;6165753;23;20019;-91
2023/05/14 11:59:35;;;;;;;5.82;3.28;;;;;;;;;;6189997;23;20012;-90
2023/05/14 12:02:02;;;;;;;8.48;4.00;;;;;;;;;;6189826;23;20008;-91
2023/05/14 12:04:30;;;;;;;6.13;3.22;;;;;;;;;;6188001;23;20013;-90
2023/05/14 12:06:57;;;;;;;6.80;4.00;;;;;;;;;;6190142;23;20005;-90
2023/05/14 12:09:23;;;;;;;7.65;3.90;;;;;;;;;;6215443;23;20036;-91
2023/05/14 12:11:50;;;;;;;12.82;3.25;;;;;;;;;;6164589;23;20027;-90
2023/05/14 12:14:22;;;;;;;5.53;3.15;;;;;;;;;;6190131;23;20005;-91
2023/05/14 12:16:49;;;;;;;5.20;3.45;;;;;;;;;;6190032;23;20419;-90
2023/05/14 12:19:16;;;;;;;4.85;2.90;;;;;;;;;;6188191;23;20019;-90
2023/05/14 12:21:45;;;;;;;7.70;3.60;;;;;;;;;;6164857;23;20108;-89
2023/05/14 12:24:12;;;;;;;6.47;3.70;;;;;;;;;;6188642;23;20004;-89
2023/05/14 12:26:41;;;;;;;5.07;3.63;;;;;;;;;;6192813;23;20012;-89
2023/05/14 12:29:25;;;;;;;5.25;3.47;;;;;;;;;;6190462;23;20012;-90
2023/05/14 12:31:59;;;;;;;6.10;3.28;;;;;;;;;;6188960;23;20406;-90
2023/05/14 12:34:32;;;;;;;11.68;3.22;;;;;;;;;;6189037;23;20008;-90
2023/05/14 12:37:11;;;;;;;4.53;3.42;;;;;;;;;;6190792;23;20016;-90
2023/05/14 12:39:37;;;;;;;11.82;3.80;;;;;;;;;;6189747;23;20009;-92
2023/05/14 12:42:08;;;;;;;6.28;3.28;;;;;;;;;;6227259;22;20262;-90
2023/05/14 12:44:38;;;;;;;7.15;3.58;;;;;;;;;;6194906;23;20023;-90
2023/05/14 12:47:04;;;;;;;8.52;3.40;;;;;;;;;;6194642;23;20019;-91
2023/05/14 12:49:33;;;;;;;9.38;3.35;;;;;;;;;;6193103;23;20016;-91
2023/05/14 12:52:02;;;;;;;7.32;3.75;;;;;;;;;;6218314;23;20008;-90
2023/05/14 12:54:29;;;;;;;8.88;3.40;;;;;;;;;;6194244;23;20438;-89
2023/05/14 12:57:12;;;;;;;10.23;3.72;;;;;;;;;;6194348;23;20035;-91
2023/05/14 12:59:38;;;;;;;6.10;3.92;;;;;;;;;;6195054;23;20071;-90
2023/05/14 13:02:05;;;;;;;10.45;3.80;;;;;;;;;;6194001;23;20353;-89
2023/05/14 13:04:31;;;;;;;5.10;3.53;;;;;;;;;;6194010;23;20069;-91
2023/05/14 13:06:57;;;;;;;12.32;3.75;;;;;;;;;;6217597;23;20342;-91
2023/05/14 13:09:23;;;;;;;6.32;3.10;;;;;;;;;;6190449;23;20016;-90
2023/05/14 13:11:53;;;;;;;5.07;2.80;;;;;;;;;;6192741;23;20457;-90
2023/05/14 13:14:19;;;;;;;4.90;3.03;;;;;;;;;;6216790;23;20530;-90
2023/05/14 13:16:45;;;;;;;9.32;3.97;;;;;;;;;;6217582;23;20000;-91
2023/05/14 13:19:11;;;;;;;5.78;3.42;;;;;;;;;;6191972;23;20394;-89
2023/05/14 13:21:46;;;;;;;5.43;3.45;;;;;;;;;;6193046;23;20007;-91
2023/05/14 13:24:12;;;;;;;7.20;4.20;;;;;;;;;;6219572;23;20008;-90
2023/05/14 13:26:43;;;;;;;12.55;5.38;;;;;;;;;;6195956;23;20008;-90
2023/05/14 13:29:10;;;;;;;10.35;5.18;;;;;;;;;;6196040;23;20276;-90
2023/05/14 13:31:36;;;;;;;7.82;6.10;;;;;;;;;;6196195;23;20019;-90
2023/05/14 13:34:05;;;;;;;18.70;6.13;;;;;;;;;;6195343;23;20004;-90
2023/05/14 13:36:38;;;;;;;13.32;6.25;;;;;;;;;;6223323;23;20294;-90
2023/05/14 13:39:15;;;;;;;17.73;7.13;;;;;;;;;;6197082;23;20031;-91
2023/05/14 13:41:46;;;;;;;14.77;6.90;;;;;;;;;;6217609;22;20008;-90
2023/05/14 13:44:12;;;;;;;11.23;6.97;;;;;;;;;;6220395;23;20012;-90
2023/05/14 13:46:42;;;;;;;14.77;7.20;;;;;;;;;;6191287;23;20008;-90
2023/05/14 13:49:09;;;;;;;10.50;6.95;;;;;;;;;;6193901;23;20018;-89
2023/05/14 13:54:24;;;;;;;20.27;7.20;;;;;;;;;;6199096;23;20011;-88
2023/05/14 13:56:51;;;;;;;10.23;6.05;;;;;;;;;;6197162;23;20015;-89
2023/05/14 13:59:18;;;;;;;12.52;6.68;;;;;;;;;;6195653;23;20016;-89
2023/05/14 14:01:55;;;;;;;13.77;6.72;;;;;;;;;;6199976;23;20012;-89
2023/05/14 14:04:27;;;;;;;14.80;7.10;;;;;;;;;;6201715;23;20016;-89
2023/05/14 14:06:54;;;;;;;15.05;8.07;;;;;;;;;;6224318;23;20011;-89
2023/05/14 14:09:21;;;;;;;11.20;6.18;;;;;;;;;;6199863;23;20084;-89
2023/05/14 14:14:46;;;;;;;14.15;6.63;;;;;;;;;;6185811;23;20008;-90
2023/05/14 14:17:12;;;;;;;18.30;7.60;;;;;;;;;;6253449;23;20001;-89
2023/05/14 14:19:41;;;;;;;12.48;7.32;;;;;;;;;;6226356;23;20031;-89
2023/05/14 14:22:08;;;;;;;13.63;7.40;;;;;;;;;;6225871;23;20116;-89
2023/05/14 14:24:37;;;;;;;14.32;6.30;;;;;;;;;;6225795;23;20513;-90
2023/05/14 14:27:07;;;;;;;14.38;7.35;;;;;;;;;;6201603;23;20036;-89
2023/05/14 14:29:57;;;;;;;10.07;6.50;;;;;;;;;;6202222;23;20008;-90
2023/05/14 14:32:25;;;;;;;21.98;8.25;;;;;;;;;;6225976;23;20004;-90
2023/05/14 14:35:01;;;;;;;11.48;6.97;;;;;;;;;;6225153;23;20430;-89
2023/05/14 14:37:27;;;;;;;9.52;6.53;;;;;;;;;;6202775;23;20522;-90
2023/05/14 14:43:08;;;;;;;13.27;7.50;;;;;;;;;;6235889;22;20038;-89
2023/05/14 14:45:44;;;;;;;15.20;7.80;;;;;;;;;;6226551;23;20027;-89
2023/05/14 14:48:10;;;;;;;;;;;;;;;;;;6202480;23;20016;-89
2023/05/14 14:53:27;;;;;;;14.40;7.53;;;;;;;;;;6240565;23;20015;-88
2023/05/14 14:56:03;;;;;;;12.80;7.93;;;;;;;;;;6202122;23;20024;-89
2023/05/14 14:58:29;;;;;;;14.70;7.97;;;;;;;;;;6224997;23;20007;-89
2023/05/14 15:00:56;;;;;;;12.85;7.53;;;;;;;;;;6227512;23;20012;-90
2023/05/14 15:03:25;;;;;;;13.10;6.95;;;;;;;;;;6227096;23;20027;-89
2023/05/14 15:05:55;;;;;;;13.55;7.55;;;;;;;;;;6224672;23;20012;-89
2023/05/14 15:08:31;;;;;;;14.73;7.20;;;;;;;;;;6225935;23;20011;-89
2023/05/14 15:10:58;;;;;;;12.07;7.68;;;;;;;;;;6200457;23;20016;-89
2023/05/14 15:14:06;;;;;;;13.70;7.00;;;;;;;;;;6225818;23;20028;-90
2023/05/14 15:16:41;;;;;;;20.45;8.07;;;;;;;;;;6181196;23;20043;-89
2023/05/14 15:19:08;;;;;;;20.80;7.87;;;;;;;;;;6199804;23;20346;-90
2023/05/14 15:21:50;;;;;;;;;;;;;;;;;;;;;
2023/05/14 15:24:17;;;;;;;19.60;8.98;;;;;;;;;;6252752;23;20038;-90
2023/05/14 15:26:43;;;;;;;13.73;7.60;;;;;;;;;;6225560;23;20015;-90
2023/05/14 15:29:30;;;;;;;14.68;8.80;;;;;;;;;;6199863;23;20064;-88
2023/05/14 15:31:58;;;;;;;14.13;8.90;;;;;;;;;;6225721;23;20065;-89
2023/05/14 15:34:25;;;;;;;15.32;7.75;;;;;;;;;;6226063;23;20005;-90
2023/05/14 15:36:51;;;;;;;23.23;10.00;;;;;;;;;;6199397;23;20039;-90
2023/05/14 15:39:18;;;;;;;13.13;8.88;;;;;;;;;;6226352;23;20000;-90